Terminal Aerodrome Forecast
Issued by NWS Charleston, WV

Current Version | Previous Version | Graphics & Text | Print | Product List | Glossary On
Versions: 1 2 3 4 5 6 7 8 9 10 11 12 13 14 15 16 17 18 19 20 21 22 23
000
FTUS41 KRLX 141600 AAA
TAFPKB
TAF AMD
KPKB 141606Z 1416/1512 21015G27KT P6SM BKN080
     FM141800 22017G25KT P6SM VCTS OVC050CB
     FM142000 21017G24KT P6SM SHRA OVC045
     FM150100 20009KT P6SM SHRA OVC035
     FM150300 19008KT P6SM SHRA OVC015
     FM150600 20008KT 5SM SHRA OVC015
     FM150700 21009KT 6SM SHRA OVC015
     FM151000 26010G16KT P6SM SHRA OVC015=

USA.gov is the U.S. government's official web portal to all federal, state and local government web resources and services.